Time;durP1;ratioP1;P1;durP2;ratioP2;P2;SDS_P1;SDS_P2;PMS_P1;PMS_P2;Temp;Humidity;BMP_temperature;BMP_pressure;BME280_temperature;BME280_humidity;BME280_pressure;Samples;Min_cycle;Max_cycle;Signal;HPM_P1;HPM_P2
2022/06/08 00:02:01;;;;;;;;;3.00;3.00;;;;;18.21;70.07;100652.03;5100804;27;45327;-73
2022/06/08 00:04:26;;;;;;;;;5.00;3.00;;;;;18.21;69.46;100652.03;5096244;27;45543;-73
2022/06/08 00:06:52;;;;;;;;;3.00;3.00;;;;;18.24;69.56;100656.97;5081660;27;46630;-73
2022/06/08 00:09:18;;;;;;;;;2.00;2.00;;;;;18.24;70.20;100646.19;5081439;27;45305;-74
2022/06/08 00:11:44;;;;;;;;;3.67;2.00;;;;;18.09;69.72;100623.19;5081709;28;45442;-73
2022/06/08 00:14:12;;;;;;;;;3.33;3.00;;;;;18.22;69.57;100643.72;5081384;27;45404;-73
2022/06/08 00:16:38;;;;;;;;;4.33;3.33;;;;;18.20;69.90;100634.25;5081508;28;45335;-73
2022/06/08 00:19:03;;;;;;;;;2.00;2.00;;;;;18.11;70.07;100623.00;5079956;28;45344;-73
2022/06/08 00:21:29;;;;;;;;;3.00;3.00;;;;;18.19;70.30;100630.75;5080387;28;45315;-73
2022/06/08 00:23:55;;;;;;;;;2.00;2.00;;;;;18.12;70.43;100619.25;5081200;28;45462;-73
2022/06/08 00:26:21;;;;;;;;;2.00;2.00;;;;;18.19;70.68;100625.34;5081229;28;45157;-73
2022/06/08 00:28:47;;;;;;;;;3.00;3.00;;;;;18.19;70.14;100605.72;5081614;27;45342;-73
2022/06/08 00:31:12;;;;;;;;;2.67;2.67;;;;;18.13;70.16;100596.69;5081446;28;45165;-73
2022/06/08 00:33:37;;;;;;;;;2.00;2.00;;;;;18.13;70.27;100604.75;5080169;28;47285;-73
2022/06/08 00:36:03;;;;;;;;;3.00;3.00;;;;;18.19;70.56;100611.91;5079949;28;48090;-73
2022/06/08 00:38:29;;;;;;;;;5.00;4.00;;;;;18.16;70.80;100590.84;5081067;27;45385;-72
2022/06/08 00:41:13;;;;;;;;;2.67;2.67;;;;;18.13;70.67;100585.94;5081152;28;45335;-73
2022/06/08 00:43:39;;;;;;;;;2.33;2.33;;;;;18.13;70.80;100591.31;5080023;28;45345;-73
2022/06/08 00:46:06;;;;;;;;;4.00;3.00;;;;;18.19;70.78;100598.47;5081032;27;46210;-73
2022/06/08 00:48:37;;;;;;;;;3.00;3.00;;;;;18.05;69.99;100565.56;5081120;27;45345;-73
2022/06/08 00:51:02;;;;;;;;;1.00;1.00;;;;;18.13;70.80;100580.56;5081150;28;45364;-73
2022/06/08 00:53:37;;;;;;;;;3.00;3.00;;;;;18.15;70.60;100579.28;5079351;28;45987;-72
2022/06/08 00:56:06;;;;;;;;;3.67;3.00;;;;;18.10;70.45;100573.78;5080753;28;45267;-73
2022/06/08 00:58:33;;;;;;;;;2.00;1.00;;;;;18.11;70.71;100561.94;5113887;27;45414;-73
2022/06/08 01:00:59;;;;;;;;;3.00;2.00;;;;;18.16;71.40;100567.47;5080727;28;45312;-73
2022/06/08 01:03:26;;;;;;;;;3.33;3.33;;;;;18.16;71.77;100569.34;5080810;27;45518;-73
2022/06/08 01:06:01;;;;;;;;;5.00;3.00;;;;;18.15;71.54;100562.31;5098094;27;46065;-73
2022/06/08 01:08:38;;;;;;;;;3.33;3.33;;;;;18.03;72.14;100549.66;5100900;27;45482;-72
2022/06/08 01:11:07;;;;;;;;;2.67;2.33;;;;;18.11;72.31;100561.94;5101276;27;45637;-73
2022/06/08 01:13:35;;;;;;;;;4.00;3.00;;;;;18.05;72.33;100554.78;5101058;27;45369;-74
2022/06/08 01:16:07;;;;;;;;;6.33;4.00;;;;;18.09;72.15;100564.03;5100907;27;46459;-73
2022/06/08 01:18:33;;;;;;;;;1.00;1.00;;;;;18.07;72.78;100559.94;5101092;27;45368;-73
2022/06/08 01:21:22;;;;;;;;;3.00;3.00;;;;;18.05;72.88;100566.34;5101010;27;45463;-73
2022/06/08 01:23:50;;;;;;;;;3.33;3.00;;;;;18.03;72.87;100563.09;5100486;27;45360;-74
2022/06/08 01:26:41;;;;;;;;;4.00;2.33;;;;;18.02;72.97;100566.00;5100711;27;45423;-73
2022/06/08 01:29:27;;;;;;;;;5.67;4.67;;;;;18.00;72.98;100566.22;5100482;27;45315;-73
2022/06/08 01:32:16;;;;;;;;;3.33;2.67;;;;;17.98;73.01;100564.78;5109437;27;45323;-73
2022/06/08 01:35:11;;;;;;;;;4.00;4.00;;;;;17.89;73.27;100550.88;5100787;27;45293;-73
2022/06/08 01:37:48;;;;;;;;;2.00;2.00;;;;;17.96;73.22;100570.41;5100456;27;45432;-73
2022/06/08 01:40:23;;;;;;;;;2.00;2.00;;;;;17.95;73.51;100568.78;5100650;27;45283;-73
2022/06/08 01:43:03;;;;;;;;;3.67;3.67;;;;;17.92;73.73;100553.09;5100530;27;45388;-73
2022/06/08 01:45:51;;;;;;;;;3.67;3.33;;;;;17.92;74.00;100547.72;5099243;27;47139;-73
2022/06/08 01:48:22;;;;;;;;;4.00;3.00;;;;;17.91;73.61;100551.47;5098986;27;47304;-73
2022/06/08 01:51:06;;;;;;;;;4.33;3.67;;;;;17.89;74.26;100556.22;5099008;27;45265;-73
2022/06/08 01:53:38;;;;;;;;;4.00;3.00;;;;;17.85;73.70;100547.00;5098404;27;45240;-73
2022/06/08 01:56:13;;;;;;;;;5.00;3.00;;;;;17.79;74.77;100530.75;5099857;27;45422;-73
2022/06/08 01:59:05;;;;;;;;;5.00;3.33;;;;;17.86;74.43;100543.25;5098799;27;47254;-73
2022/06/08 02:01:40;;;;;;;;;1.33;1.33;;;;;17.85;74.67;100558.56;5128590;27;45416;-73
2022/06/08 02:04:31;;;;;;;;;4.33;3.67;;;;;17.85;75.07;100565.81;5096026;27;45520;-73
2022/06/08 02:07:10;;;;;;;;;4.67;4.67;;;;;17.77;75.02;100561.56;5079890;28;45236;-72
2022/06/08 02:09:44;;;;;;;;;5.00;3.67;;;;;17.80;75.02;100571.88;5079540;27;45411;-73
2022/06/08 02:12:11;;;;;;;;;4.67;4.00;;;;;17.77;75.59;100567.78;5078313;28;45945;-73
2022/06/08 02:14:46;;;;;;;;;2.00;2.00;;;;;17.77;75.98;100565.09;5079864;28;45362;-73
2022/06/08 02:17:26;;;;;;;;;4.00;4.00;;;;;17.75;75.82;100561.78;5095312;27;46378;-73
2022/06/08 02:19:57;;;;;;;;;4.00;4.00;;;;;17.70;76.22;100547.41;5079673;28;45880;-73
2022/06/08 02:22:31;;;;;;;;;3.00;3.00;;;;;17.66;76.52;100539.78;5079560;27;45311;-73
2022/06/08 02:25:09;;;;;;;;;5.00;4.00;;;;;17.70;76.72;100539.34;5078129;28;45407;-73
2022/06/08 02:27:41;;;;;;;;;5.33;4.00;;;;;17.56;77.24;100528.75;5079296;27;45512;-72
2022/06/08 02:30:13;;;;;;;;;4.67;3.00;;;;;17.65;76.88;100551.59;5078009;28;47660;-72
2022/06/08 02:35:47;;;;;;;;;5.00;3.00;;;;;17.48;78.06;100523.72;5079462;28;45234;-72
2022/06/08 02:38:19;;;;;;;;;3.33;3.00;;;;;17.48;78.17;100521.81;5079123;27;45541;-72
2022/06/08 02:40:49;;;;;;;;;5.67;4.00;;;;;17.54;78.87;100533.56;5077817;28;48176;-73
2022/06/08 02:43:42;;;;;;;;;3.00;3.00;;;;;17.44;79.00;100525.19;5079169;28;45345;-72
2022/06/08 02:46:25;;;;;;;;;3.00;3.00;;;;;17.45;78.65;100530.31;5078255;28;45379;-72
2022/06/08 02:48:51;;;;;;;;;2.00;2.00;;;;;17.42;79.13;100528.13;5079242;28;45353;-72
2022/06/08 02:51:24;;;;;;;;;3.33;3.33;;;;;17.41;79.25;100527.28;5111954;27;47491;-72
2022/06/08 02:53:56;;;;;;;;;4.33;4.33;;;;;17.46;79.75;100529.31;5079073;27;45382;-72
2022/06/08 02:56:31;;;;;;;;;3.00;3.00;;;;;17.38;79.41;100526.91;5079255;28;45354;-72
2022/06/08 02:59:37;;;;;;;;;5.00;4.00;;;;;17.42;80.01;100530.81;5079077;28;45325;-72
2022/06/08 03:02:13;;;;;;;;;3.67;3.67;;;;;17.33;80.11;100522.22;5078975;28;46227;-73
2022/06/08 03:04:47;;;;;;;;;2.67;2.67;;;;;17.29;80.29;100519.16;5086466;27;45372;-72
2022/06/08 03:07:16;;;;;;;;;4.00;3.00;;;;;17.34;79.69;100523.88;5102666;27;45291;-72
2022/06/08 03:09:44;;;;;;;;;5.00;5.00;;;;;17.31;80.27;100526.16;5118793;27;47313;-72
2022/06/08 03:12:26;;;;;;;;;6.00;4.00;;;;;17.24;80.20;100528.94;5102753;27;45319;-72
2022/06/08 03:14:52;;;;;;;;;4.33;4.33;;;;;17.12;80.34;100504.72;5102967;27;45419;-72
2022/06/08 03:17:26;;;;;;;;;5.33;3.00;;;;;17.16;79.95;100511.25;5103106;27;45424;-72
2022/06/08 03:19:53;;;;;;;;;3.00;3.00;;;;;17.12;80.51;100502.03;5101374;27;46070;-71
2022/06/08 03:22:19;;;;;;;;;5.00;4.67;;;;;17.04;81.01;100489.69;5102575;27;45356;-71
2022/06/08 03:24:45;;;;;;;;;4.00;4.00;;;;;17.08;80.65;100492.75;5102758;27;45426;-73
2022/06/08 03:27:12;;;;;;;;;3.00;3.00;;;;;17.12;80.77;100491.28;5102983;27;45363;-72
2022/06/08 03:29:38;;;;;;;;;3.67;3.67;;;;;17.12;81.38;100483.22;5102695;27;45514;-72
2022/06/08 03:32:04;;;;;;;;;2.33;2.33;;;;;17.12;81.86;100485.91;5102720;27;45306;-73
2022/06/08 03:34:30;;;;;;;;;4.00;3.67;;;;;17.11;81.68;100478.88;5102606;27;45373;-72
2022/06/08 03:36:55;;;;;;;;;3.33;2.33;;;;;17.12;82.11;100472.50;5102778;27;45314;-72
2022/06/08 03:39:21;;;;;;;;;5.00;4.00;;;;;17.12;81.75;100475.19;5101061;27;47249;-72
2022/06/08 03:41:46;;;;;;;;;5.00;3.67;;;;;17.04;82.01;100450.22;5102410;27;45285;-73
2022/06/08 03:44:12;;;;;;;;;3.33;2.00;;;;;17.09;81.99;100463.00;5101236;27;45310;-72
2022/06/08 03:46:49;;;;;;;;;5.00;4.00;;;;;17.02;82.18;100444.28;5101159;27;45301;-72
2022/06/08 03:49:14;;;;;;;;;3.00;3.00;;;;;17.12;82.69;100465.22;5102585;27;45486;-73
2022/06/08 03:51:41;;;;;;;;;5.00;3.00;;;;;17.07;82.50;100443.63;5102271;27;46192;-73
2022/06/08 03:54:16;;;;;;;;;5.67;5.00;;;;;17.13;82.52;100447.28;5102154;27;45340;-73
2022/06/08 03:56:45;;;;;;;;;5.00;4.00;;;;;17.12;83.01;100446.44;5102353;27;45538;-73
2022/06/08 03:59:10;;;;;;;;;4.00;3.67;;;;;17.04;82.63;100436.00;5102224;27;45477;-73
2022/06/08 04:01:36;;;;;;;;;6.33;6.33;;;;;17.06;82.60;100443.81;5100401;27;47182;-73
2022/06/08 04:04:02;;;;;;;;;5.00;3.00;;;;;17.11;83.19;100450.19;5098391;27;45377;-74
2022/06/08 04:06:27;;;;;;;;;8.67;6.00;;;;;17.04;82.69;100438.69;5081667;27;45310;-73
2022/06/08 04:08:53;;;;;;;;;8.00;6.00;;;;;17.04;83.34;100444.03;5079856;28;45907;-73
2022/06/08 04:11:18;;;;;;;;;3.67;3.67;;;;;17.08;83.35;100447.94;5080219;28;47495;-74
2022/06/08 04:13:44;;;;;;;;;6.00;5.00;;;;;17.07;83.37;100445.47;5081817;27;45188;-73
2022/06/08 04:16:09;;;;;;;;;5.33;5.33;;;;;16.95;84.16;100427.44;5081670;28;45181;-74
2022/06/08 04:18:35;;;;;;;;;3.67;2.67;;;;;16.97;83.31;100432.56;5078984;28;46105;-74
2022/06/08 04:21:03;;;;;;;;;4.00;4.00;;;;;17.02;83.67;100446.13;5080145;28;48293;-74
2022/06/08 04:23:31;;;;;;;;;5.00;4.00;;;;;17.00;84.21;100448.22;5079428;28;46379;-74
2022/06/08 04:25:57;;;;;;;;;6.00;4.00;;;;;16.99;83.61;100436.66;5081414;27;45366;-74
2022/06/08 04:28:24;;;;;;;;;5.00;5.00;;;;;16.98;84.13;100437.72;5081409;27;45307;-73
2022/06/08 04:30:49;;;;;;;;;5.00;5.00;;;;;16.98;84.03;100443.09;5079960;28;48363;-73
2022/06/08 04:33:15;;;;;;;;;3.00;3.00;;;;;16.99;84.29;100436.66;5079896;28;45299;-74
2022/06/08 04:35:41;;;;;;;;;5.33;5.00;;;;;17.00;84.37;100442.84;5080295;28;45240;-74
2022/06/08 04:38:07;;;;;;;;;7.00;6.00;;;;;16.99;84.32;100443.88;5081024;27;45350;-74
2022/06/08 04:40:34;;;;;;;;;6.67;6.67;;;;;16.98;84.48;100437.72;5079517;28;48473;-74
2022/06/08 04:43:00;;;;;;;;;7.33;6.00;;;;;16.91;84.52;100431.56;5081025;28;45448;-74
2022/06/08 04:45:26;;;;;;;;;6.00;6.00;;;;;16.85;84.09;100424.44;5079994;28;45387;-74
2022/06/08 04:47:51;;;;;;;;;5.00;5.00;;;;;16.90;84.30;100425.41;5081142;27;45378;-73
2022/06/08 04:50:17;;;;;;;;;4.33;4.33;;;;;16.91;84.54;100427.03;5079596;28;48056;-74
2022/06/08 04:52:42;;;;;;;;;5.00;5.00;;;;;16.94;85.07;100425.75;5080838;27;45369;-73
2022/06/08 04:55:10;;;;;;;;;4.00;4.00;;;;;16.95;85.11;100422.06;5081150;27;45422;-74
2022/06/08 04:57:37;;;;;;;;;4.67;4.67;;;;;16.94;85.10;100420.41;5080925;27;45278;-74
2022/06/08 05:00:13;;;;;;;;;4.00;4.00;;;;;16.93;84.40;100418.75;5080886;27;45255;-74
2022/06/08 05:02:44;;;;;;;;;5.67;5.67;;;;;16.85;84.71;100405.66;5079671;28;45321;-73
2022/06/08 05:05:20;;;;;;;;;5.00;4.67;;;;;16.86;84.68;100407.28;5092798;27;45511;-73
2022/06/08 05:07:47;;;;;;;;;6.00;6.00;;;;;16.79;84.74;100401.97;5086595;27;45231;-74
2022/06/08 05:10:12;;;;;;;;;4.67;4.67;;;;;16.82;84.82;100400.75;5079402;28;47209;-74
2022/06/08 05:12:38;;;;;;;;;3.33;3.33;;;;;16.79;84.09;100391.25;5079191;28;45715;-73
2022/06/08 05:15:11;;;;;;;;;5.33;5.33;;;;;16.74;84.80;100391.94;5079968;27;45420;-75
2022/06/08 05:17:37;;;;;;;;;47.00;37.50;;;;;16.72;85.14;100394.03;5080363;27;45281;-74
2022/06/08 05:20:05;;;;;;;;;5.00;5.00;;;;;16.68;84.92;100381.28;5079995;27;45370;-74
2022/06/08 05:22:30;;;;;;;;;5.00;5.00;;;;;16.66;85.15;100389.56;5080356;27;45358;-75
2022/06/08 05:24:56;;;;;;;;;5.67;5.67;;;;;16.64;85.44;100384.41;5080577;27;45372;-74
2022/06/08 05:27:21;;;;;;;;;4.00;2.67;;;;;16.71;85.53;100397.75;5080167;27;45543;-74
2022/06/08 05:29:47;;;;;;;;;3.00;3.00;;;;;16.71;85.35;100389.72;5079943;28;45355;-74
2022/06/08 05:32:12;;;;;;;;;5.00;5.00;;;;;16.69;85.27;100381.06;5080279;27;45403;-74
2022/06/08 05:34:37;;;;;;;;;4.00;4.00;;;;;16.62;85.66;100375.78;5080609;27;45242;-74
2022/06/08 05:37:03;;;;;;;;;4.00;3.00;;;;;16.60;86.22;100379.72;5079990;27;45315;-74
2022/06/08 05:39:29;;;;;;;;;3.00;3.00;;;;;16.54;85.52;100376.06;5080265;27;46700;-74
2022/06/08 05:41:54;;;;;;;;;3.67;3.67;;;;;16.56;85.87;100376.66;5079887;27;45259;-74
2022/06/08 05:44:20;;;;;;;;;7.33;5.67;;;;;16.50;86.09;100359.63;5080295;27;45201;-74
2022/06/08 05:46:50;;;;;;;;;6.00;4.67;;;;;16.54;85.82;100365.34;5080239;27;45382;-74
2022/06/08 05:49:17;;;;;;;;;6.33;5.33;;;;;16.56;86.14;100365.09;5080119;27;45356;-74
2022/06/08 05:51:43;;;;;;;;;3.67;3.67;;;;;16.60;86.26;100366.28;5080101;27;45322;-74
2022/06/08 05:54:08;;;;;;;;;4.00;4.00;;;;;16.54;85.99;100354.59;5079939;27;45348;-74
2022/06/08 05:56:34;;;;;;;;;5.33;4.00;;;;;16.52;86.17;100356.69;5079893;27;45348;-74
2022/06/08 05:58:59;;;;;;;;;2.67;2.67;;;;;16.48;86.35;100352.81;5079838;27;45219;-74
2022/06/08 06:01:25;;;;;;;;;5.33;3.33;;;;;16.52;86.45;100354.81;5080026;28;45202;-74
2022/06/08 06:03:51;;;;;;;;;5.33;2.33;;;;;16.53;86.31;100361.03;5080606;27;45255;-74
2022/06/08 06:06:17;;;;;;;;;4.00;3.67;;;;;16.47;86.38;100348.50;5099041;27;46487;-74
2022/06/08 06:08:45;;;;;;;;;5.33;5.00;;;;;16.45;87.08;100354.09;5133065;27;46204;-74
2022/06/08 06:11:13;;;;;;;;;4.00;3.67;;;;;16.40;87.00;100348.56;5100249;27;45398;-74
2022/06/08 06:13:39;;;;;;;;;3.00;3.00;;;;;16.37;86.60;100351.72;5133364;27;45364;-73
2022/06/08 06:16:04;;;;;;;;;4.00;4.00;;;;;16.38;87.09;100364.06;5100138;27;45496;-73
2022/06/08 06:18:30;;;;;;;;;3.33;3.33;;;;;16.31;87.15;100353.41;5099946;27;46635;-74
2022/06/08 06:20:55;;;;;;;;;5.00;5.00;;;;;16.34;87.16;100360.19;5099868;27;51497;-74
2022/06/08 06:23:21;;;;;;;;;3.67;3.67;;;;;16.30;86.55;100351.75;5100130;27;45243;-73
2022/06/08 06:25:46;;;;;;;;;3.33;2.33;;;;;16.20;87.40;100346.91;5133019;27;47051;-74
2022/06/08 06:28:11;;;;;;;;;4.00;3.67;;;;;16.27;87.36;100355.72;5100012;27;45234;-74
2022/06/08 06:30:36;;;;;;;;;3.00;3.00;;;;;16.27;86.95;100358.41;5098566;27;45192;-73
2022/06/08 06:33:02;;;;;;;;;4.00;4.00;;;;;16.27;87.27;100365.59;5100091;27;45250;-74
2022/06/08 06:35:29;;;;;;;;;3.00;2.00;;;;;16.30;87.44;100364.34;5099890;27;45287;-73
2022/06/08 06:37:55;;;;;;;;;3.33;3.33;;;;;16.29;87.28;100374.25;5099565;27;45448;-73
2022/06/08 06:40:21;;;;;;;;;4.00;4.00;;;;;16.26;86.73;100367.47;5100187;27;45308;-74
2022/06/08 06:42:47;;;;;;;;;2.67;2.67;;;;;16.19;86.64;100358.66;5103563;27;45318;-74
2022/06/08 06:45:14;;;;;;;;;4.00;2.00;;;;;16.21;87.49;100363.81;5103350;27;45438;-74
2022/06/08 06:47:39;;;;;;;;;2.00;2.00;;;;;16.19;87.30;100377.44;5103166;27;48360;-73
2022/06/08 06:50:06;;;;;;;;;2.00;2.00;;;;;16.07;87.28;100368.50;5103214;27;45392;-73
2022/06/08 06:52:32;;;;;;;;;3.00;2.67;;;;;16.06;87.23;100375.69;5103509;27;45267;-73
2022/06/08 06:54:58;;;;;;;;;5.67;4.00;;;;;16.09;87.25;100377.13;5103134;27;45558;-74
2022/06/08 06:57:23;;;;;;;;;3.33;2.00;;;;;16.07;87.78;100379.22;5103320;27;46144;-74
2022/06/08 06:59:50;;;;;;;;;2.00;2.00;;;;;15.99;88.02;100373.09;5103136;27;45454;-73
2022/06/08 07:02:18;;;;;;;;;2.00;2.00;;;;;16.01;87.93;100373.69;5103487;27;45524;-74
2022/06/08 07:04:44;;;;;;;;;3.67;3.00;;;;;16.07;88.25;100387.25;5094595;27;45377;-74
2022/06/08 07:07:10;;;;;;;;;4.00;4.00;;;;;16.07;87.82;100380.00;5082402;28;46353;-74
2022/06/08 07:09:36;;;;;;;;;3.67;3.00;;;;;16.02;87.85;100375.31;5082439;27;45340;-73
2022/06/08 07:12:03;;;;;;;;;2.00;2.00;;;;;16.03;87.90;100385.00;5082627;28;45223;-74
2022/06/08 07:14:28;;;;;;;;;3.67;2.00;;;;;16.04;87.26;100375.09;5082401;27;45429;-73
2022/06/08 07:16:54;;;;;;;;;4.67;4.00;;;;;16.08;88.22;100387.03;5082468;28;45271;-73
2022/06/08 07:19:20;;;;;;;;;2.00;2.00;;;;;16.01;87.84;100373.69;5082334;27;45353;-74
2022/06/08 07:21:46;;;;;;;;;4.67;2.00;;;;;16.02;87.24;100378.00;5082452;28;45272;-73
2022/06/08 07:24:17;;;;;;;;;3.00;2.67;;;;;16.02;88.39;100388.72;5082235;28;45426;-72
2022/06/08 07:26:42;;;;;;;;;3.00;3.00;;;;;16.07;87.68;100392.63;5082345;28;45247;-73
2022/06/08 07:29:08;;;;;;;;;2.00;2.00;;;;;16.03;87.84;100387.69;5082366;27;45286;-73
2022/06/08 07:31:33;;;;;;;;;1.67;1.67;;;;;15.94;87.74;100380.94;5098001;27;46506;-73
2022/06/08 07:33:59;;;;;;;;;1.00;1.00;;;;;15.95;87.90;100379.88;5082306;27;45267;-73
2022/06/08 07:36:24;;;;;;;;;2.00;2.00;;;;;15.97;88.42;100390.41;5082200;27;45734;-72
2022/06/08 07:38:50;;;;;;;;;2.33;2.33;;;;;15.94;88.43;100383.59;5080797;28;45357;-73
2022/06/08 07:41:15;;;;;;;;;1.67;1.00;;;;;15.97;88.60;100385.06;5082384;28;45356;-73
2022/06/08 07:43:41;;;;;;;;;1.00;1.00;;;;;15.94;88.50;100388.13;5081850;28;45333;-73
2022/06/08 07:46:06;;;;;;;;;1.00;1.00;;;;;15.84;88.86;100375.25;5082067;28;45334;-73
2022/06/08 07:51:18;;;;;;;;;3.33;2.33;;;;;15.93;90.43;100383.81;5081937;28;45345;-72
2022/06/08 07:53:43;;;;;;;;;1.67;1.67;;;;;15.88;92.81;100376.44;5080372;28;45844;-73
2022/06/08 07:56:09;;;;;;;;;1.00;1.00;;;;;15.90;91.94;100377.84;5081779;28;46294;-73
2022/06/08 07:58:35;;;;;;;;;4.33;2.00;;;;;15.92;90.31;100380.31;5081888;27;45315;-72
2022/06/08 08:01:00;;;;;;;;;2.00;2.00;;;;;15.89;89.97;100378.06;5082146;27;45317;-73
2022/06/08 08:03:26;;;;;;;;;0.00;0.00;;;;;15.88;90.48;100371.91;5081753;27;45339;-73
2022/06/08 08:05:51;;;;;;;;;2.67;2.67;;;;;16.03;91.62;100374.28;5099167;27;46705;-72
2022/06/08 08:08:19;;;;;;;;;1.00;1.00;;;;;16.02;90.62;100356.56;5101912;27;45255;-73
2022/06/08 08:10:45;;;;;;;;;1.00;1.00;;;;;16.12;90.71;100361.41;5102268;27;45346;-72
2022/06/08 08:13:11;;;;;;;;;3.00;2.00;;;;;16.22;90.33;100373.50;5102178;27;45719;-73
2022/06/08 08:15:37;;;;;;;;;2.00;2.00;;;;;16.28;90.24;100365.38;5117740;27;47287;-73
2022/06/08 08:18:03;;;;;;;;;1.67;1.67;;;;;16.35;90.23;100357.28;5101976;27;45345;-73
2022/06/08 08:20:30;;;;;;;;;0.00;0.00;;;;;16.34;90.19;100358.31;5102161;27;45232;-74
2022/06/08 08:22:57;;;;;;;;;0.33;0.33;;;;;16.41;89.79;100360.94;5101699;27;45478;-73
2022/06/08 08:25:24;;;;;;;;;0.00;0.00;;;;;16.39;90.24;100365.69;5101906;27;45383;-73
2022/06/08 08:27:50;;;;;;;;;0.33;0.33;;;;;16.36;89.79;100353.56;5101820;27;45327;-73
2022/06/08 08:30:18;;;;;;;;;2.67;2.67;;;;;16.45;89.90;100361.28;5102063;27;45373;-73
2022/06/08 08:32:44;;;;;;;;;1.00;1.00;;;;;16.44;90.39;100354.31;5101877;27;45324;-73
2022/06/08 08:35:10;;;;;;;;;0.67;0.67;;;;;16.52;90.14;100345.94;5101675;27;45259;-74
2022/06/08 08:37:36;;;;;;;;;1.00;1.00;;;;;16.60;89.98;100364.44;5101620;27;45329;-73
2022/06/08 08:40:04;;;;;;;;;0.33;0.33;;;;;16.61;90.25;100351.84;5101854;27;45334;-73
2022/06/08 08:42:30;;;;;;;;;0.00;0.00;;;;;16.73;90.08;100366.13;5101412;27;45449;-73
2022/06/08 08:45:04;;;;;;;;;0.33;0.33;;;;;16.82;90.45;100347.88;5101608;27;45347;-74
2022/06/08 08:47:35;;;;;;;;;1.00;0.00;;;;;17.04;90.59;100360.81;5101482;27;45377;-74
2022/06/08 08:50:12;;;;;;;;;2.67;1.67;;;;;17.18;90.52;100347.25;5101662;27;45389;-73
2022/06/08 08:52:48;;;;;;;;;2.00;2.00;;;;;17.34;90.91;100357.34;5101334;27;45292;-74
2022/06/08 08:55:17;;;;;;;;;1.00;0.00;;;;;17.48;90.71;100357.16;5101447;27;45451;-74
2022/06/08 08:58:08;;;;;;;;;0.00;0.00;;;;;17.59;89.53;100359.03;5101389;27;45294;-74
2022/06/08 09:00:41;;;;;;;;;1.00;1.00;;;;;17.68;89.58;100370.25;5101617;27;45363;-74
2022/06/08 09:03:16;;;;;;;;;0.33;0.33;;;;;17.72;88.84;100355.31;5133488;27;46176;-74
2022/06/08 09:05:44;;;;;;;;;0.33;0.33;;;;;17.85;89.08;100369.59;5084553;27;46432;-73
2022/06/08 09:08:11;;;;;;;;;0.00;0.00;;;;;17.84;89.13;100363.38;5080402;27;45443;-74
2022/06/08 09:10:37;;;;;;;;;1.00;1.00;;;;;17.89;89.03;100376.97;5080967;28;45302;-74
2022/06/08 09:13:04;;;;;;;;;1.00;1.00;;;;;17.90;89.26;100375.91;5079231;28;46150;-74
2022/06/08 09:15:44;;;;;;;;;1.00;1.00;;;;;18.01;88.65;100374.28;5113390;27;48339;-74
2022/06/08 09:18:35;;;;;;;;;0.67;0.00;;;;;18.07;88.74;100374.41;5080491;27;45341;-74
2022/06/08 09:21:27;;;;;;;;;2.00;2.00;;;;;18.07;88.64;100377.91;5077317;27;45282;-74
2022/06/08 09:23:55;;;;;;;;;1.33;1.33;;;;;18.13;88.78;100378.88;5080368;27;45254;-74
2022/06/08 09:26:24;;;;;;;;;2.00;2.00;;;;;18.15;88.51;100379.47;5078929;28;48488;-73
2022/06/08 09:29:22;;;;;;;;;1.67;1.67;;;;;18.07;88.64;100360.97;5080358;28;45631;-74
2022/06/08 09:31:50;;;;;;;;;2.00;2.00;;;;;18.20;88.50;100376.06;5076126;27;45344;-74
2022/06/08 09:34:16;;;;;;;;;1.00;1.00;;;;;18.28;88.66;100384.59;5080352;27;45379;-74
2022/06/08 09:36:43;;;;;;;;;1.67;1.67;;;;;18.25;88.48;100376.16;5078679;28;47330;-74
2022/06/08 09:39:15;;;;;;;;;2.00;2.00;;;;;18.26;88.31;100377.81;5080302;28;45292;-74
2022/06/08 09:41:50;;;;;;;;;4.00;4.00;;;;;18.17;88.54;100367.41;5080165;28;45233;-74
2022/06/08 09:44:19;;;;;;;;;2.67;2.67;;;;;18.29;88.81;100386.22;5080201;27;45493;-74
2022/06/08 09:53:06;;;;;;;;;4.00;4.00;;;;;18.42;88.63;100376.28;5079910;28;45319;-74
2022/06/08 09:55:47;;;;;;;;;2.00;2.00;;;;;18.51;89.20;100368.66;5078720;28;47192;-74
2022/06/08 09:58:31;;;;;;;;;3.00;3.00;;;;;18.67;88.91;100378.69;5079900;28;46293;-74
2022/06/08 10:01:24;;;;;;;;;3.67;3.67;;;;;18.78;88.88;100381.59;5079992;28;45350;-73
2022/06/08 10:04:27;;;;;;;;;3.00;3.00;;;;;18.88;88.94;100384.50;5080512;27;45268;-74
2022/06/08 10:07:03;;;;;;;;;3.67;3.67;;;;;19.00;89.29;100378.25;5099926;27;45343;-74
2022/06/08 10:09:58;;;;;;;;;2.67;2.67;;;;;19.16;88.84;100372.13;5099991;27;46556;-74
2022/06/08 10:12:58;;;;;;;;;1.33;1.33;;;;;19.26;88.86;100374.22;5100149;27;45327;-74
2022/06/08 10:15:36;;;;;;;;;2.33;2.33;;;;;19.35;87.64;100373.81;5092584;27;45357;-74
2022/06/08 10:18:19;;;;;;;;;3.00;3.00;;;;;19.49;87.99;100364.38;5100095;27;45349;-74
2022/06/08 10:20:50;;;;;;;;;3.00;3.00;;;;;19.65;87.61;100367.31;5100069;27;45557;-74
2022/06/08 10:23:27;;;;;;;;;5.00;3.00;;;;;19.75;86.94;100361.28;5099916;27;45235;-74
2022/06/08 10:26:00;;;;;;;;;4.00;4.00;;;;;19.89;87.36;100350.97;5099974;27;45345;-75
2022/06/08 10:28:35;;;;;;;;;3.00;3.00;;;;;20.04;86.16;100356.63;5098537;27;47081;-74
2022/06/08 10:31:05;;;;;;;;;4.67;3.00;;;;;20.13;85.65;100345.41;5099861;27;45226;-74
2022/06/08 10:34:03;;;;;;;;;3.00;3.00;;;;;20.25;85.79;100356.91;5099899;27;45380;-76
2022/06/08 10:36:34;;;;;;;;;3.33;3.33;;;;;20.36;84.88;100346.25;5115856;27;45370;-74
2022/06/08 10:39:02;;;;;;;;;4.00;4.00;;;;;20.40;84.89;100339.28;5099702;27;45522;-74
2022/06/08 10:44:26;;;;;;;;;3.00;3.00;;;;;20.75;84.71;100343.50;5099535;27;45162;-74
2022/06/08 10:46:51;;;;;;;;;3.00;3.00;;;;;20.90;84.96;100329.38;5098681;27;45398;-74
2022/06/08 10:49:37;;;;;;;;;2.00;2.00;;;;;21.27;84.86;100346.75;5099643;27;45382;-75
2022/06/08 10:52:17;;;;;;;;;4.33;4.33;;;;;21.50;82.94;100341.28;5100235;27;45384;-75
2022/06/08 10:54:54;;;;;;;;;4.00;4.00;;;;;21.62;81.92;100347.34;5099584;27;45325;-74
2022/06/08 10:57:40;;;;;;;;;7.67;7.67;;;;;21.73;80.58;100337.38;5099846;27;45432;-75
2022/06/08 11:00:24;;;;;;;;;5.00;5.00;;;;;21.68;79.67;100329.25;5099544;27;45261;-76
2022/06/08 11:02:52;;;;;;;;;3.00;3.00;;;;;21.69;79.66;100336.28;5099692;27;45187;-76
2022/06/08 11:05:36;;;;;;;;;2.00;2.00;;;;;21.57;80.03;100331.88;5086216;27;45248;-77
2022/06/08 11:08:01;;;;;;;;;4.00;4.00;;;;;21.44;79.95;100340.41;5078922;28;45242;-75
2022/06/08 11:10:43;;;;;;;;;4.67;4.67;;;;;21.29;80.81;100355.44;5079133;28;45211;-75
2022/06/08 11:13:18;;;;;;;;;5.33;5.33;;;;;20.96;96.32;100367.25;5079025;28;45362;-74
2022/06/08 11:15:59;;;;;;;;;3.33;3.00;;;;;20.66;100.00;100362.03;5078938;28;45399;-74
2022/06/08 11:18:49;;;;;;;;;2.00;2.00;;;;;21.11;100.00;100353.09;5079049;27;45292;-74
2022/06/08 11:21:14;;;;;;;;;3.00;2.00;;;;;25.26;100.00;100349.44;5078814;28;45244;-74
2022/06/08 11:23:46;;;;;;;;;2.00;2.00;;;;;22.16;100.00;100355.56;5078721;28;45482;-75
2022/06/08 11:26:37;;;;;;;;;4.00;4.00;;;;;20.68;100.00;100367.97;5078824;28;45310;-74
2022/06/08 11:29:18;;;;;;;;;1.33;1.33;;;;;20.26;100.00;100368.53;5079729;27;45515;-74
2022/06/08 11:31:43;;;;;;;;;2.33;2.00;;;;;20.07;100.00;100374.19;5082163;28;45311;-74
2022/06/08 11:34:20;;;;;;;;;4.00;2.67;;;;;19.91;100.00;100365.81;5082222;28;45335;-74
2022/06/08 11:37:07;;;;;;;;;2.00;1.67;;;;;19.79;100.00;100365.91;5081972;28;45412;-74
2022/06/08 11:40:00;;;;;;;;;1.00;1.00;;;;;19.69;100.00;100365.75;5082416;28;45279;-74
2022/06/08 11:42:33;;;;;;;;;0.00;0.00;;;;;19.67;100.00;100367.88;5080568;28;46181;-74
2022/06/08 11:45:13;;;;;;;;;0.00;0.00;;;;;19.60;100.00;100343.78;5081999;28;46527;-74
2022/06/08 11:47:49;;;;;;;;;1.67;1.00;;;;;19.87;100.00;100370.09;5080707;28;45250;-74
2022/06/08 11:50:22;;;;;;;;;1.00;1.00;;;;;19.93;87.81;100358.31;5080683;28;45359;-73
2022/06/08 11:53:01;;;;;;;;;1.00;1.00;;;;;20.11;87.06;100351.03;5081760;28;45334;-73
2022/06/08 11:55:27;;;;;;;;;1.00;1.00;;;;;20.18;86.62;100342.78;5097599;27;47631;-73
2022/06/08 11:58:05;;;;;;;;;5.33;2.33;;;;;20.39;87.15;100343.88;5080293;28;45377;-73